Time;durP1;ratioP1;P1;durP2;ratioP2;P2;SDS_P1;SDS_P2;PMS_P1;PMS_P2;Temp;Humidity;BMP_temperature;BMP_pressure;BME280_temperature;BME280_humidity;BME280_pressure;Samples;Min_cycle;Max_cycle;Signal;HPM_P1;HPM_P2
2023/07/25 00:01:28;;;;;;;2.67;2.00;;;;;;;;;;4977509;28;20026;-88
2023/07/25 00:03:54;;;;;;;2.35;2.05;;;;;;;;;;4972728;28;20037;-88
2023/07/25 00:06:19;;;;;;;4.43;2.15;;;;;;;;;;4954230;28;20029;-87
2023/07/25 00:08:44;;;;;;;6.22;2.00;;;;;;;;;;4954419;28;20105;-88
2023/07/25 00:11:13;;;;;;;3.22;1.98;;;;;;;;;;4954052;28;20026;-87
2023/07/25 00:13:39;;;;;;;2.20;2.00;;;;;;;;;;4953283;28;20019;-87
2023/07/25 00:16:04;;;;;;;2.53;1.75;;;;;;;;;;4960234;28;20019;-87
2023/07/25 00:18:30;;;;;;;2.30;1.73;;;;;;;;;;4959915;28;20473;-88
2023/07/25 00:20:55;;;;;;;2.20;1.88;;;;;;;;;;4957246;28;20023;-88
2023/07/25 00:23:20;;;;;;;3.05;2.03;;;;;;;;;;4955584;28;20031;-88
2023/07/25 00:25:46;;;;;;;4.03;2.10;;;;;;;;;;4972446;28;20031;-87
2023/07/25 00:28:11;;;;;;;3.45;2.10;;;;;;;;;;4955336;28;20047;-88
2023/07/25 00:30:37;;;;;;;4.85;2.08;;;;;;;;;;4955473;28;20050;-88
2023/07/25 00:33:02;;;;;;;2.75;2.13;;;;;;;;;;4955341;28;20023;-89
2023/07/25 00:35:28;;;;;;;3.42;2.25;;;;;;;;;;4955548;28;20015;-88
2023/07/25 00:37:56;;;;;;;2.75;2.05;;;;;;;;;;4958599;28;20050;-88
2023/07/25 00:40:22;;;;;;;3.15;1.90;;;;;;;;;;4964721;28;20082;-89
2023/07/25 00:42:53;;;;;;;2.95;2.10;;;;;;;;;;4968732;28;20045;-88
2023/07/25 00:45:18;;;;;;;5.05;2.17;;;;;;;;;;4996043;28;20023;-88
2023/07/25 00:47:44;;;;;;;3.85;2.17;;;;;;;;;;4960655;28;20034;-88
2023/07/25 00:50:09;;;;;;;3.03;2.20;;;;;;;;;;4959841;28;20396;-88
2023/07/25 00:52:34;;;;;;;4.10;2.05;;;;;;;;;;4952959;28;20571;-87
2023/07/25 00:55:00;;;;;;;6.25;2.25;;;;;;;;;;4953973;28;20473;-88
2023/07/25 00:57:25;;;;;;;4.38;2.53;;;;;;;;;;4983137;28;20046;-87
2023/07/25 00:59:50;;;;;;;3.45;2.33;;;;;;;;;;4977011;28;20074;-88
2023/07/25 01:02:16;;;;;;;3.85;2.22;;;;;;;;;;4959227;28;20030;-88
2023/07/25 01:04:42;;;;;;;4.50;2.67;;;;;;;;;;4969002;28;20023;-87
2023/07/25 01:07:08;;;;;;;4.32;2.35;;;;;;;;;;4971772;28;20019;-87
2023/07/25 01:09:45;;;;;;;6.18;2.58;;;;;;;;;;4969295;28;20109;-86
2023/07/25 01:12:11;;;;;;;4.72;2.50;;;;;;;;;;4977523;28;20472;-87
2023/07/25 01:14:38;;;;;;;4.88;2.47;;;;;;;;;;4975070;28;20102;-87
2023/07/25 01:17:12;;;;;;;4.35;2.28;;;;;;;;;;4976548;28;20017;-87
2023/07/25 01:19:40;;;;;;;5.07;2.30;;;;;;;;;;4976107;28;20481;-86
2023/07/25 01:22:07;;;;;;;3.70;2.10;;;;;;;;;;4974064;28;20527;-87
2023/07/25 01:24:32;;;;;;;4.30;2.53;;;;;;;;;;4976091;28;20066;-86
2023/07/25 01:26:58;;;;;;;6.28;2.35;;;;;;;;;;4953025;29;20047;-86
2023/07/25 01:29:23;;;;;;;4.35;2.85;;;;;;;;;;4956497;28;20085;-88
2023/07/25 01:31:49;;;;;;;3.85;2.42;;;;;;;;;;4966427;28;20160;-86
2023/07/25 01:34:14;;;;;;;5.78;2.65;;;;;;;;;;4954737;28;20027;-87
2023/07/25 01:36:39;;;;;;;3.60;2.60;;;;;;;;;;4957820;28;20050;-87
2023/07/25 01:39:05;;;;;;;4.57;2.35;;;;;;;;;;4959862;28;20362;-87
2023/07/25 01:41:31;;;;;;;4.03;2.47;;;;;;;;;;4959703;28;20027;-87
2023/07/25 01:43:56;;;;;;;2.47;2.25;;;;;;;;;;4945805;28;20019;-87
2023/07/25 01:46:21;;;;;;;6.38;2.67;;;;;;;;;;4952412;28;20023;-87
2023/07/25 01:48:47;;;;;;;7.95;2.38;;;;;;;;;;4973612;28;20408;-87
2023/07/25 01:51:12;;;;;;;3.95;2.08;;;;;;;;;;4976134;28;20037;-87
2023/07/25 01:53:37;;;;;;;3.30;2.40;;;;;;;;;;4967300;28;20038;-87
2023/07/25 01:56:03;;;;;;;3.70;2.08;;;;;;;;;;4965629;28;20038;-86
2023/07/25 01:58:28;;;;;;;4.13;2.55;;;;;;;;;;4976977;28;20093;-85
2023/07/25 02:01:00;;;;;;;4.95;2.50;;;;;;;;;;4975582;28;20118;-86
2023/07/25 02:03:26;;;;;;;4.15;2.45;;;;;;;;;;4949511;28;20031;-86
2023/07/25 02:05:51;;;;;;;3.25;2.40;;;;;;;;;;4974698;28;20129;-86
2023/07/25 02:08:17;;;;;;;2.58;2.13;;;;;;;;;;4959466;28;20035;-86
2023/07/25 02:10:42;;;;;;;3.42;2.58;;;;;;;;;;4949459;28;20392;-85
2023/07/25 02:13:07;;;;;;;4.60;2.65;;;;;;;;;;4956836;28;20374;-86
2023/07/25 02:15:33;;;;;;;4.38;2.47;;;;;;;;;;4957254;28;20023;-86
2023/07/25 02:17:58;;;;;;;4.57;2.47;;;;;;;;;;4956624;28;20021;-86
2023/07/25 02:20:25;;;;;;;3.72;2.45;;;;;;;;;;4976406;28;20038;-87
2023/07/25 02:22:51;;;;;;;2.45;2.05;;;;;;;;;;4975853;28;20029;-86
2023/07/25 02:25:16;;;;;;;5.25;2.38;;;;;;;;;;4959147;28;20027;-87
2023/07/25 02:27:42;;;;;;;5.43;2.80;;;;;;;;;;4975419;28;20054;-87
2023/07/25 02:30:07;;;;;;;3.55;2.25;;;;;;;;;;4953078;29;20023;-87
2023/07/25 02:32:32;;;;;;;3.72;2.50;;;;;;;;;;4956332;28;20437;-88
2023/07/25 02:34:58;;;;;;;3.65;2.58;;;;;;;;;;4975603;28;20403;-87
2023/07/25 02:37:23;;;;;;;3.60;2.55;;;;;;;;;;4973837;28;20049;-87
2023/07/25 02:39:48;;;;;;;9.45;2.80;;;;;;;;;;4967663;28;20480;-87
2023/07/25 02:42:14;;;;;;;3.00;2.25;;;;;;;;;;4974337;28;20676;-88
2023/07/25 02:44:39;;;;;;;3.40;2.28;;;;;;;;;;4977472;28;20026;-88
2023/07/25 02:47:05;;;;;;;5.72;3.17;;;;;;;;;;4979527;28;20027;-87
2023/07/25 02:49:30;;;;;;;5.55;2.78;;;;;;;;;;4955145;28;20035;-87
2023/07/25 02:51:55;;;;;;;5.35;3.03;;;;;;;;;;4979133;28;20038;-87
2023/07/25 02:54:24;;;;;;;3.92;2.80;;;;;;;;;;4959894;28;20033;-87
2023/07/25 02:56:49;;;;;;;4.07;2.75;;;;;;;;;;4975428;28;20023;-88
2023/07/25 02:59:14;;;;;;;5.20;3.40;;;;;;;;;;4957617;28;20081;-87
2023/07/25 03:01:40;;;;;;;7.53;2.80;;;;;;;;;;4957233;28;20023;-87
2023/07/25 03:04:05;;;;;;;5.28;2.85;;;;;;;;;;4974082;28;20023;-88
2023/07/25 03:06:30;;;;;;;6.90;3.03;;;;;;;;;;4973615;28;20026;-87
2023/07/25 03:08:56;;;;;;;5.80;3.70;;;;;;;;;;4957585;28;20030;-87
2023/07/25 03:11:21;;;;;;;7.70;2.78;;;;;;;;;;4957583;28;20035;-87
2023/07/25 03:13:46;;;;;;;9.50;3.13;;;;;;;;;;4974765;28;20023;-88
2023/07/25 03:16:12;;;;;;;4.97;2.45;;;;;;;;;;4974310;28;20500;-88
2023/07/25 03:18:38;;;;;;;6.40;2.58;;;;;;;;;;4972627;28;20131;-87
2023/07/25 03:21:03;;;;;;;5.97;2.50;;;;;;;;;;4951727;28;20023;-86
2023/07/25 03:23:29;;;;;;;5.95;2.70;;;;;;;;;;4957356;28;20022;-87
2023/07/25 03:25:54;;;;;;;3.50;2.20;;;;;;;;;;4957305;28;20022;-88
2023/07/25 03:28:20;;;;;;;7.22;2.55;;;;;;;;;;4957280;28;20027;-87
2023/07/25 03:30:45;;;;;;;4.45;3.05;;;;;;;;;;4958086;28;21449;-87
2023/07/25 03:33:11;;;;;;;6.75;2.85;;;;;;;;;;4956842;28;20406;-87
2023/07/25 03:35:36;;;;;;;4.05;2.45;;;;;;;;;;4960860;28;20034;-86
2023/07/25 03:38:01;;;;;;;4.90;2.90;;;;;;;;;;4957802;28;20030;-87
2023/07/25 03:40:26;;;;;;;4.55;2.85;;;;;;;;;;4957687;28;20027;-88
2023/07/25 03:42:52;;;;;;;4.80;3.20;;;;;;;;;;4958002;28;20026;-86
2023/07/25 03:45:17;;;;;;;4.53;2.80;;;;;;;;;;4975024;28;20023;-86
2023/07/25 03:47:43;;;;;;;6.20;3.10;;;;;;;;;;4974103;28;20449;-87
2023/07/25 03:50:08;;;;;;;3.50;2.35;;;;;;;;;;4957984;28;20023;-86
2023/07/25 03:52:34;;;;;;;2.95;2.17;;;;;;;;;;4975213;28;20031;-87
2023/07/25 03:54:59;;;;;;;4.22;2.35;;;;;;;;;;4970877;28;20035;-87
2023/07/25 03:57:24;;;;;;;5.45;2.60;;;;;;;;;;4953894;28;20029;-87
2023/07/25 03:59:50;;;;;;;3.55;2.42;;;;;;;;;;4975034;28;20018;-86
2023/07/25 04:02:15;;;;;;;4.18;2.30;;;;;;;;;;4987141;28;20025;-86
2023/07/25 04:04:40;;;;;;;6.78;2.30;;;;;;;;;;4958601;28;20042;-87
2023/07/25 04:07:05;;;;;;;5.30;2.53;;;;;;;;;;4960188;28;20018;-86
2023/07/25 04:09:31;;;;;;;2.38;2.00;;;;;;;;;;4960597;28;20027;-87
2023/07/25 04:11:56;;;;;;;3.17;2.05;;;;;;;;;;4959013;28;20027;-87
2023/07/25 04:14:22;;;;;;;3.38;1.83;;;;;;;;;;4960940;28;20027;-85
2023/07/25 04:16:47;;;;;;;2.97;2.28;;;;;;;;;;4955977;28;20151;-87
2023/07/25 04:19:12;;;;;;;2.90;1.90;;;;;;;;;;4964112;28;20090;-86
2023/07/25 04:21:37;;;;;;;2.33;1.92;;;;;;;;;;4980960;28;20055;-86
2023/07/25 04:24:05;;;;;;;5.13;2.10;;;;;;;;;;4989654;28;20127;-86
2023/07/25 04:26:30;;;;;;;3.45;2.15;;;;;;;;;;4992300;28;20018;-87
2023/07/25 04:28:56;;;;;;;3.40;1.95;;;;;;;;;;4968341;28;20033;-87
2023/07/25 04:31:21;;;;;;;3.95;2.08;;;;;;;;;;4980826;28;20030;-88
2023/07/25 04:33:46;;;;;;;6.50;2.78;;;;;;;;;;4982208;28;20360;-87
2023/07/25 04:36:12;;;;;;;3.17;1.90;;;;;;;;;;4963799;28;20089;-87
2023/07/25 04:38:37;;;;;;;3.15;2.00;;;;;;;;;;4981416;28;20038;-87
2023/07/25 04:41:02;;;;;;;2.70;2.10;;;;;;;;;;4962416;28;20049;-88
2023/07/25 04:43:27;;;;;;;3.33;2.28;;;;;;;;;;4981250;28;20034;-87
2023/07/25 04:45:53;;;;;;;4.05;2.00;;;;;;;;;;4960206;28;20031;-85
2023/07/25 04:48:18;;;;;;;3.22;1.92;;;;;;;;;;4976695;28;20106;-86
2023/07/25 04:50:43;;;;;;;2.72;2.08;;;;;;;;;;4976285;28;20031;-88
2023/07/25 04:53:09;;;;;;;3.25;2.08;;;;;;;;;;4981811;28;20026;-87
2023/07/25 04:55:34;;;;;;;3.38;2.22;;;;;;;;;;4975632;28;20059;-86
2023/07/25 04:57:59;;;;;;;3.60;2.40;;;;;;;;;;4966637;29;20071;-86
2023/07/25 05:00:25;;;;;;;5.72;1.92;;;;;;;;;;4983963;28;20049;-87
2023/07/25 05:02:51;;;;;;;3.35;2.20;;;;;;;;;;4963324;28;20528;-86
2023/07/25 05:05:17;;;;;;;3.78;2.40;;;;;;;;;;4956615;28;20026;-86
2023/07/25 05:07:42;;;;;;;4.97;2.65;;;;;;;;;;4963724;28;20050;-86
2023/07/25 05:10:08;;;;;;;3.03;2.03;;;;;;;;;;4954821;28;20030;-86
2023/07/25 05:12:33;;;;;;;3.70;2.10;;;;;;;;;;4973218;28;20443;-87
2023/07/25 05:14:58;;;;;;;3.10;2.10;;;;;;;;;;4980788;28;20022;-87
2023/07/25 05:17:24;;;;;;;5.85;2.55;;;;;;;;;;4972008;28;20049;-86
2023/07/25 05:19:49;;;;;;;4.40;2.38;;;;;;;;;;4969298;28;20371;-86
2023/07/25 05:22:14;;;;;;;5.15;2.92;;;;;;;;;;4977414;28;20038;-86
2023/07/25 05:24:40;;;;;;;5.20;2.50;;;;;;;;;;4973730;28;20117;-86
2023/07/25 05:27:05;;;;;;;2.53;1.88;;;;;;;;;;4963697;28;20110;-86
2023/07/25 05:29:31;;;;;;;3.38;2.60;;;;;;;;;;4959039;28;20046;-87
2023/07/25 05:31:56;;;;;;;2.95;2.03;;;;;;;;;;4968921;28;20396;-87
2023/07/25 05:34:21;;;;;;;3.40;2.28;;;;;;;;;;4960259;28;20029;-86
2023/07/25 05:36:47;;;;;;;5.40;2.83;;;;;;;;;;4965852;28;20130;-87
2023/07/25 05:39:12;;;;;;;2.78;2.10;;;;;;;;;;4958442;28;20030;-86
2023/07/25 05:41:39;;;;;;;5.93;2.60;;;;;;;;;;4957964;28;20048;-87
2023/07/25 05:44:04;;;;;;;3.30;2.30;;;;;;;;;;4956053;29;20034;-86
2023/07/25 05:46:30;;;;;;;2.75;2.10;;;;;;;;;;4957935;28;20032;-88
2023/07/25 05:48:55;;;;;;;7.30;2.45;;;;;;;;;;4982439;28;20037;-87
2023/07/25 05:51:20;;;;;;;4.50;2.35;;;;;;;;;;4978828;28;20042;-86
2023/07/25 05:53:46;;;;;;;3.70;2.72;;;;;;;;;;4950001;28;20114;-87
2023/07/25 05:56:11;;;;;;;3.50;2.38;;;;;;;;;;4951017;28;20074;-86
2023/07/25 05:58:36;;;;;;;7.18;2.60;;;;;;;;;;4969257;28;20680;-86
2023/07/25 06:01:02;;;;;;;7.47;2.40;;;;;;;;;;4956985;28;20037;-86
2023/07/25 06:03:27;;;;;;;3.13;1.92;;;;;;;;;;4954636;28;20027;-88
2023/07/25 06:05:52;;;;;;;3.70;2.65;;;;;;;;;;4960026;28;20114;-88
2023/07/25 06:08:18;;;;;;;4.07;2.70;;;;;;;;;;4959459;28;20050;-88
2023/07/25 06:10:43;;;;;;;4.43;2.88;;;;;;;;;;4958258;28;20800;-88
2023/07/25 06:13:09;;;;;;;6.35;2.80;;;;;;;;;;4975059;28;20027;-87
2023/07/25 06:15:34;;;;;;;3.72;2.67;;;;;;;;;;4975424;28;20042;-87
2023/07/25 06:18:03;;;;;;;8.88;3.00;;;;;;;;;;4957755;28;20034;-88
2023/07/25 06:20:29;;;;;;;4.13;2.60;;;;;;;;;;4957877;28;20090;-88
2023/07/25 06:22:54;;;;;;;4.00;2.25;;;;;;;;;;4949531;28;20398;-87
2023/07/25 06:25:20;;;;;;;6.13;3.05;;;;;;;;;;4978766;28;20014;-87
2023/07/25 06:27:45;;;;;;;3.85;2.55;;;;;;;;;;4958601;28;20386;-86
2023/07/25 06:30:11;;;;;;;5.28;2.50;;;;;;;;;;4959179;28;20450;-87
2023/07/25 06:32:37;;;;;;;3.80;2.15;;;;;;;;;;4975628;28;20026;-88
2023/07/25 06:35:04;;;;;;;3.47;2.30;;;;;;;;;;4970511;28;20027;-88
2023/07/25 06:37:32;;;;;;;3.33;2.28;;;;;;;;;;4957066;28;20050;-85
2023/07/25 06:40:00;;;;;;;2.50;2.20;;;;;;;;;;4977301;28;20030;-88
2023/07/25 06:42:28;;;;;;;2.72;1.80;;;;;;;;;;4955717;29;20042;-87
2023/07/25 06:44:53;;;;;;;3.13;1.75;;;;;;;;;;4959126;28;20447;-87
2023/07/25 06:47:19;;;;;;;4.53;1.92;;;;;;;;;;4960165;28;20062;-86
2023/07/25 06:49:44;;;;;;;5.72;1.98;;;;;;;;;;4968730;28;20027;-87
2023/07/25 06:52:09;;;;;;;2.63;1.80;;;;;;;;;;4978160;28;20038;-87
2023/07/25 06:54:37;;;;;;;2.72;2.10;;;;;;;;;;4961894;28;20043;-88
2023/07/25 06:57:03;;;;;;;3.28;1.75;;;;;;;;;;4960763;28;20031;-87
2023/07/25 06:59:29;;;;;;;2.78;1.70;;;;;;;;;;4979805;28;20078;-88
2023/07/25 07:01:55;;;;;;;5.90;2.00;;;;;;;;;;4989625;28;20022;-89
2023/07/25 07:04:20;;;;;;;2.63;1.75;;;;;;;;;;4966402;28;20026;-88
2023/07/25 07:06:46;;;;;;;5.78;2.20;;;;;;;;;;4978788;28;20030;-88
2023/07/25 07:09:15;;;;;;;4.60;2.63;;;;;;;;;;4961364;28;20121;-88
2023/07/25 07:11:41;;;;;;;2.17;1.85;;;;;;;;;;4962001;28;20469;-87
2023/07/25 07:14:07;;;;;;;4.53;1.95;;;;;;;;;;4956127;28;20055;-89
2023/07/25 07:16:32;;;;;;;3.75;1.98;;;;;;;;;;4956422;28;20056;-87
2023/07/25 07:18:57;;;;;;;3.13;1.85;;;;;;;;;;4958890;28;20023;-88
2023/07/25 07:21:23;;;;;;;3.17;2.08;;;;;;;;;;4959141;28;20030;-88
2023/07/25 07:23:48;;;;;;;5.07;2.15;;;;;;;;;;4977499;28;20497;-88
2023/07/25 07:26:14;;;;;;;3.00;2.10;;;;;;;;;;4986734;28;20019;-87
2023/07/25 07:28:39;;;;;;;2.15;1.80;;;;;;;;;;4954288;28;20453;-88
2023/07/25 07:31:08;;;;;;;5.00;2.10;;;;;;;;;;4958313;28;20087;-89
2023/07/25 07:33:34;;;;;;;4.57;2.30;;;;;;;;;;4952178;29;20055;-87
2023/07/25 07:35:59;;;;;;;6.05;2.05;;;;;;;;;;4974852;28;20023;-87
2023/07/25 07:38:24;;;;;;;4.72;1.85;;;;;;;;;;4960542;28;20037;-87
2023/07/25 07:40:50;;;;;;;2.38;1.90;;;;;;;;;;4955384;28;20070;-87
2023/07/25 07:43:15;;;;;;;2.70;1.83;;;;;;;;;;4959748;28;20346;-88
2023/07/25 07:45:41;;;;;;;2.33;1.80;;;;;;;;;;4978398;28;20022;-87
2023/07/25 07:48:06;;;;;;;2.40;1.95;;;;;;;;;;4971676;28;20027;-86
2023/07/25 07:50:33;;;;;;;2.05;1.60;;;;;;;;;;4958933;28;20066;-88
2023/07/25 07:52:59;;;;;;;4.05;1.67;;;;;;;;;;4961476;28;20488;-88
2023/07/25 07:55:25;;;;;;;2.45;1.50;;;;;;;;;;4959145;28;20102;-87
2023/07/25 07:57:50;;;;;;;2.08;1.80;;;;;;;;;;4955339;28;20062;-87
2023/07/25 08:00:16;;;;;;;4.20;2.10;;;;;;;;;;4959724;28;20147;-86
2023/07/25 08:02:50;;;;;;;1.70;1.60;;;;;;;;;;4958269;28;20497;-87
2023/07/25 08:05:16;;;;;;;1.75;1.50;;;;;;;;;;4961377;28;20105;-87
2023/07/25 08:07:41;;;;;;;1.80;1.52;;;;;;;;;;4960592;28;20035;-87
2023/07/25 08:10:07;;;;;;;2.67;1.75;;;;;;;;;;4975317;28;20027;-88
2023/07/25 08:12:33;;;;;;;1.55;1.38;;;;;;;;;;4975420;28;20021;-92
2023/07/25 08:14:58;;;;;;;1.88;1.30;;;;;;;;;;4961358;28;20062;-87
2023/07/25 08:17:23;;;;;;;1.63;1.23;;;;;;;;;;4959276;28;20034;-87
2023/07/25 08:19:49;;;;;;;1.52;1.38;;;;;;;;;;4959720;28;20030;-87
2023/07/25 08:22:14;;;;;;;1.80;1.20;;;;;;;;;;4952657;28;20031;-86
2023/07/25 08:24:40;;;;;;;1.55;1.35;;;;;;;;;;4954749;29;20042;-87
2023/07/25 08:27:07;;;;;;;2.53;1.15;;;;;;;;;;4949346;28;20031;-87
2023/07/25 08:29:32;;;;;;;1.58;1.23;;;;;;;;;;4954489;28;20030;-87
2023/07/25 08:31:58;;;;;;;1.20;1.10;;;;;;;;;;4974891;28;20030;-88
2023/07/25 08:34:23;;;;;;;1.60;1.33;;;;;;;;;;4956772;28;20038;-89
2023/07/25 08:36:49;;;;;;;2.80;1.33;;;;;;;;;;4957326;28;20034;-89
2023/07/25 08:39:14;;;;;;;3.88;1.50;;;;;;;;;;4948441;29;20031;-88
2023/07/25 08:41:43;;;;;;;4.88;1.77;;;;;;;;;;4957225;28;20059;-88
2023/07/25 08:44:12;;;;;;;3.65;1.23;;;;;;;;;;4964576;28;20031;-86
2023/07/25 08:46:44;;;;;;;1.25;1.05;;;;;;;;;;4954011;28;20035;-87
2023/07/25 08:49:13;;;;;;;;;;;;;;;;;;4964646;28;20445;-86
2023/07/25 08:51:42;;;;;;;1.75;1.17;;;;;;;;;;4950746;28;20288;-89
2023/07/25 08:54:29;;;;;;;1.38;1.23;;;;;;;;;;4957159;28;20027;-88
2023/07/25 08:56:54;;;;;;;3.45;1.40;;;;;;;;;;4949060;28;20023;-87
2023/07/25 08:59:20;;;;;;;2.38;1.50;;;;;;;;;;4981069;28;20037;-86
2023/07/25 09:01:46;;;;;;;1.27;1.17;;;;;;;;;;4960639;28;20078;-86
2023/07/25 09:04:13;;;;;;;2.10;1.10;;;;;;;;;;4977091;28;20031;-86
2023/07/25 09:06:39;;;;;;;1.95;1.45;;;;;;;;;;4961797;28;20029;-86
2023/07/25 09:09:05;;;;;;;1.17;1.08;;;;;;;;;;4977550;28;20027;-87
2023/07/25 09:11:33;;;;;;;3.72;1.45;;;;;;;;;;4957011;28;20027;-88
2023/07/25 09:13:58;;;;;;;1.75;1.33;;;;;;;;;;4970623;28;20031;-88
2023/07/25 09:16:24;;;;;;;1.75;1.13;;;;;;;;;;4965079;28;20552;-87
2023/07/25 09:18:49;;;;;;;0.90;0.90;;;;;;;;;;4966003;28;20456;-88
2023/07/25 09:21:15;;;;;;;1.25;1.15;;;;;;;;;;4977829;28;20083;-87
2023/07/25 09:23:59;;;;;;;1.80;1.30;;;;;;;;;;4963262;28;20058;-87
2023/07/25 09:26:30;;;;;;;1.17;1.08;;;;;;;;;;4962443;28;20035;-88
2023/07/25 09:28:58;;;;;;;1.35;1.10;;;;;;;;;;4958866;28;20050;-87
2023/07/25 09:31:27;;;;;;;1.58;0.90;;;;;;;;;;4976591;28;20031;-86
2023/07/25 09:33:54;;;;;;;0.80;0.80;;;;;;;;;;4960008;28;20035;-86
2023/07/25 09:36:19;;;;;;;1.25;1.15;;;;;;;;;;4972715;28;20108;-86
2023/07/25 09:38:53;;;;;;;1.27;1.17;;;;;;;;;;4971091;28;20075;-86
2023/07/25 09:41:20;;;;;;;1.05;1.00;;;;;;;;;;4969152;28;20074;-86
2023/07/25 09:43:45;;;;;;;3.03;1.10;;;;;;;;;;4960709;28;20031;-86
2023/07/25 09:46:11;;;;;;;1.67;1.00;;;;;;;;;;4973098;28;20041;-86
2023/07/25 09:49:03;;;;;;;1.23;1.02;;;;;;;;;;4982827;28;20022;-88
2023/07/25 09:51:28;;;;;;;4.60;1.20;;;;;;;;;;4962409;28;20026;-86
2023/07/25 09:53:54;;;;;;;2.20;1.10;;;;;;;;;;4981477;28;20033;-87
2023/07/25 09:56:24;;;;;;;1.20;0.95;;;;;;;;;;4961725;28;20029;-88
2023/07/25 09:58:51;;;;;;;1.48;0.98;;;;;;;;;;4972674;28;20086;-88
2023/07/25 10:01:18;;;;;;;1.48;0.90;;;;;;;;;;4962516;28;20034;-88
2023/07/25 10:03:43;;;;;;;0.77;0.77;;;;;;;;;;4975792;28;20050;-88
2023/07/25 10:06:14;;;;;;;2.47;1.00;;;;;;;;;;4945619;28;20023;-87
2023/07/25 10:08:43;;;;;;;1.67;0.95;;;;;;;;;;4975623;28;20034;-87
2023/07/25 10:11:11;;;;;;;1.27;1.00;;;;;;;;;;4975627;28;20217;-88
2023/07/25 10:13:36;;;;;;;2.63;1.13;;;;;;;;;;4967088;28;20030;-87
2023/07/25 10:16:10;;;;;;;1.23;0.80;;;;;;;;;;4966938;28;20041;-86
2023/07/25 10:18:35;;;;;;;2.28;1.20;;;;;;;;;;4960732;28;20138;-87
2023/07/25 10:21:02;;;;;;;1.02;0.95;;;;;;;;;;4963680;28;20062;-87
2023/07/25 10:23:34;;;;;;;1.15;0.90;;;;;;;;;;4966556;28;20026;-87
2023/07/25 10:26:18;;;;;;;0.90;0.80;;;;;;;;;;4974080;28;20066;-87
2023/07/25 10:28:46;;;;;;;1.27;1.17;;;;;;;;;;4959503;28;20568;-86
2023/07/25 10:31:23;;;;;;;0.95;0.80;;;;;;;;;;4959544;28;20362;-85
2023/07/25 10:33:57;;;;;;;2.47;1.20;;;;;;;;;;4961268;28;20109;-85
2023/07/25 10:36:24;;;;;;;0.80;0.70;;;;;;;;;;4960645;28;20449;-85
2023/07/25 10:38:52;;;;;;;2.35;0.85;;;;;;;;;;4977142;28;20037;-85
2023/07/25 10:41:19;;;;;;;1.40;1.20;;;;;;;;;;4959196;28;20022;-86
2023/07/25 10:43:44;;;;;;;0.77;0.75;;;;;;;;;;4957694;28;20606;-85
2023/07/25 10:46:40;;;;;;;0.70;0.70;;;;;;;;;;4959691;28;20027;-86
2023/07/25 10:49:16;;;;;;;2.78;0.90;;;;;;;;;;4961091;28;20031;-87
2023/07/25 10:51:52;;;;;;;1.38;0.80;;;;;;;;;;4956392;28;20027;-86
2023/07/25 10:54:22;;;;;;;0.95;0.93;;;;;;;;;;4958927;28;20090;-85
2023/07/25 10:57:06;;;;;;;2.17;0.90;;;;;;;;;;4955491;28;20049;-88
2023/07/25 10:59:57;;;;;;;0.80;0.60;;;;;;;;;;4957692;28;20027;-86
2023/07/25 11:02:35;;;;;;;0.77;0.77;;;;;;;;;;4957096;28;20039;-86
2023/07/25 11:05:13;;;;;;;1.25;0.90;;;;;;;;;;4984421;28;20469;-86
2023/07/25 11:07:59;;;;;;;2.70;0.80;;;;;;;;;;4981373;28;20091;-87
2023/07/25 11:10:28;;;;;;;1.25;0.88;;;;;;;;;;4964167;28;20063;-87
2023/07/25 11:12:58;;;;;;;1.05;0.90;;;;;;;;;;4974497;28;20034;-86
2023/07/25 11:15:30;;;;;;;0.82;0.77;;;;;;;;;;4970845;28;20022;-87
2023/07/25 11:17:55;;;;;;;0.52;0.52;;;;;;;;;;4964582;28;20082;-86
2023/07/25 11:20:22;;;;;;;0.93;0.73;;;;;;;;;;4959682;28;20038;-86
2023/07/25 11:22:53;;;;;;;1.23;1.13;;;;;;;;;;4977206;28;20186;-87
2023/07/25 11:25:19;;;;;;;0.82;0.82;;;;;;;;;;4970064;28;20022;-86
2023/07/25 11:27:46;;;;;;;0.88;0.88;;;;;;;;;;4970401;28;20464;-87
2023/07/25 11:30:16;;;;;;;1.48;0.80;;;;;;;;;;4967194;28;20394;-87
2023/07/25 11:33:00;;;;;;;1.73;0.95;;;;;;;;;;4974175;28;20051;-86
2023/07/25 11:35:29;;;;;;;1.10;0.60;;;;;;;;;;4957544;28;20040;-87
2023/07/25 11:37:59;;;;;;;1.42;0.80;;;;;;;;;;4962986;28;20027;-86
2023/07/25 11:40:27;;;;;;;0.80;0.80;;;;;;;;;;4975641;28;20122;-87
2023/07/25 11:42:54;;;;;;;0.45;0.45;;;;;;;;;;4975877;28;20018;-88
2023/07/25 11:45:20;;;;;;;0.73;0.70;;;;;;;;;;4954250;28;20033;-87
2023/07/25 11:47:48;;;;;;;0.95;0.90;;;;;;;;;;4943235;29;20016;-87
2023/07/25 11:50:14;;;;;;;0.70;0.70;;;;;;;;;;4978888;28;20054;-87
2023/07/25 11:52:42;;;;;;;0.70;0.70;;;;;;;;;;4950641;28;20030;-87
2023/07/25 11:55:08;;;;;;;1.90;0.80;;;;;;;;;;4966452;28;20033;-88
2023/07/25 11:57:40;;;;;;;5.10;1.25;;;;;;;;;;4990945;28;20062;-86
2023/07/25 12:00:11;;;;;;;0.50;0.50;;;;;;;;;;4964116;28;20050;-86
2023/07/25 12:02:40;;;;;;;0.60;0.57;;;;;;;;;;4953290;28;20027;-87
2023/07/25 12:05:09;;;;;;;1.17;0.85;;;;;;;;;;4973314;28;20049;-87
2023/07/25 12:07:51;;;;;;;2.92;0.60;;;;;;;;;;4949058;28;20031;-86
2023/07/25 12:10:26;;;;;;;1.52;1.10;;;;;;;;;;4954873;28;20041;-88
2023/07/25 12:12:55;;;;;;;2.38;0.80;;;;;;;;;;4959017;28;20132;-92
2023/07/25 12:15:22;;;;;;;3.10;1.77;;;;;;;;;;4959249;28;20027;-91
2023/07/25 12:17:47;;;;;;;3.75;0.95;;;;;;;;;;4959135;28;20019;-88
2023/07/25 12:20:18;;;;;;;4.15;0.93;;;;;;;;;;4959561;28;20042;-89
2023/07/25 12:22:45;;;;;;;0.60;0.60;;;;;;;;;;4961997;28;20433;-88
2023/07/25 12:25:14;;;;;;;3.60;0.93;;;;;;;;;;4958044;28;20059;-89
2023/07/25 12:27:48;;;;;;;1.20;0.90;;;;;;;;;;4960562;28;20031;-89
2023/07/25 12:30:14;;;;;;;1.10;0.90;;;;;;;;;;4959735;28;20030;-90
2023/07/25 12:32:39;;;;;;;5.90;1.20;;;;;;;;;;4961325;28;20033;-90
2023/07/25 12:35:14;;;;;;;0.82;0.52;;;;;;;;;;4961875;28;20121;-91
2023/07/25 12:37:42;;;;;;;1.10;0.80;;;;;;;;;;4963400;28;20026;-89
2023/07/25 12:40:08;;;;;;;2.47;0.80;;;;;;;;;;4962756;28;20054;-89
2023/07/25 12:42:42;;;;;;;2.78;1.05;;;;;;;;;;4962083;28;20018;-89
2023/07/25 12:45:08;;;;;;;0.80;0.45;;;;;;;;;;4974207;28;20187;-89
2023/07/25 12:47:34;;;;;;;0.77;0.75;;;;;;;;;;4961053;28;20050;-90
2023/07/25 12:49:59;;;;;;;3.05;1.02;;;;;;;;;;4961797;28;20041;-90
2023/07/25 12:55:36;;;;;;;1.30;0.57;;;;;;;;;;4976108;28;20031;-90
2023/07/25 13:04:17;;;;;;;1.43;0.70;;;;;;;;;;4983121;28;20065;-90
2023/07/25 13:06:43;;;;;;;0.40;0.40;;;;;;;;;;4970386;28;20035;-91
2023/07/25 13:09:16;;;;;;;0.70;0.55;;;;;;;;;;4964896;28;20094;-90
2023/07/25 13:18:53;;;;;;;2.15;0.70;;;;;;;;;;4894908;28;20116;-89
2023/07/25 13:21:18;;;;;;;1.00;0.90;;;;;;;;;;4984616;28;20065;-90
2023/07/25 13:23:44;;;;;;;1.83;0.93;;;;;;;;;;4983677;28;20031;-89
2023/07/25 13:26:09;;;;;;;0.47;0.47;;;;;;;;;;4965043;28;20019;-89
2023/07/25 13:28:34;;;;;;;0.77;0.77;;;;;;;;;;4965471;28;20029;-89
2023/07/25 13:31:00;;;;;;;0.60;0.52;;;;;;;;;;4965987;28;20026;-89
2023/07/25 13:33:25;;;;;;;0.60;0.60;;;;;;;;;;4964621;28;20041;-88
2023/07/25 13:35:52;;;;;;;0.45;0.45;;;;;;;;;;4966488;28;20079;-88
2023/07/25 13:38:17;;;;;;;0.50;0.50;;;;;;;;;;4966006;28;20039;-87
2023/07/25 13:40:43;;;;;;;1.83;0.63;;;;;;;;;;4965269;28;20030;-87
2023/07/25 13:43:09;;;;;;;1.13;0.80;;;;;;;;;;4965183;28;20437;-88
2023/07/25 13:45:34;;;;;;;2.58;0.75;;;;;;;;;;4965874;28;20038;-89
2023/07/25 13:47:59;;;;;;;0.52;0.52;;;;;;;;;;4969827;28;20026;-88
2023/07/25 13:50:26;;;;;;;0.73;0.70;;;;;;;;;;4964960;28;20054;-89
2023/07/25 13:52:52;;;;;;;0.98;0.80;;;;;;;;;;4966495;28;20027;-88
2023/07/25 13:55:18;;;;;;;0.70;0.70;;;;;;;;;;4965412;28;20090;-87
2023/07/25 13:57:44;;;;;;;1.45;0.60;;;;;;;;;;4965958;28;20031;-87
2023/07/25 14:00:09;;;;;;;0.70;0.70;;;;;;;;;;4972189;28;20015;-92
2023/07/25 14:02:37;;;;;;;1.30;1.20;;;;;;;;;;4975242;28;20046;-86
2023/07/25 14:05:03;;;;;;;3.85;1.25;;;;;;;;;;4982478;28;20086;-87
2023/07/25 14:07:28;;;;;;;1.48;1.30;;;;;;;;;;4984383;28;20046;-87
2023/07/25 14:09:54;;;;;;;1.70;1.33;;;;;;;;;;4981348;28;20042;-90
2023/07/25 14:12:19;;;;;;;2.05;1.52;;;;;;;;;;4981932;28;20011;-90
2023/07/25 14:14:45;;;;;;;1.90;1.42;;;;;;;;;;4981322;28;20222;-90
2023/07/25 14:17:10;;;;;;;2.05;1.50;;;;;;;;;;4973310;28;20023;-87
2023/07/25 14:19:35;;;;;;;2.70;1.50;;;;;;;;;;4963816;28;20026;-89
2023/07/25 14:22:01;;;;;;;1.92;1.38;;;;;;;;;;4964266;28;20022;-88
2023/07/25 14:24:26;;;;;;;5.55;1.30;;;;;;;;;;4965600;28;20027;-88
2023/07/25 14:26:52;;;;;;;2.15;1.40;;;;;;;;;;4965274;28;20030;-88
2023/07/25 14:29:17;;;;;;;2.13;1.35;;;;;;;;;;4965788;28;20481;-88
2023/07/25 14:31:43;;;;;;;2.25;1.70;;;;;;;;;;4966790;28;20049;-87
2023/07/25 14:34:08;;;;;;;2.65;1.73;;;;;;;;;;4975986;28;20058;-87
2023/07/25 14:36:33;;;;;;;1.60;1.30;;;;;;;;;;4962040;28;20021;-88
2023/07/25 14:38:59;;;;;;;2.00;1.70;;;;;;;;;;4961529;28;20035;-87
2023/07/25 14:41:24;;;;;;;3.63;1.98;;;;;;;;;;4961514;28;20090;-87
2023/07/25 14:43:49;;;;;;;2.30;1.92;;;;;;;;;;4962328;28;20077;-87
2023/07/25 14:46:15;;;;;;;1.58;1.30;;;;;;;;;;4962262;28;20477;-88
2023/07/25 14:48:40;;;;;;;3.22;1.48;;;;;;;;;;4963684;28;20042;-88
2023/07/25 14:51:05;;;;;;;1.52;1.38;;;;;;;;;;4961567;28;20109;-88
2023/07/25 14:53:32;;;;;;;1.52;1.40;;;;;;;;;;4952424;28;20031;-87
2023/07/25 14:55:57;;;;;;;2.65;1.90;;;;;;;;;;4961445;28;20456;-88
2023/07/25 14:58:22;;;;;;;1.15;1.10;;;;;;;;;;4956604;28;20078;-86